sensor_id;sensor_type;location;lat;lon;timestamp;temperature;humidity
5461;DHT22;2753;49.196;8.286;2023-06-14T00:01:57;20.70;53.90
5461;DHT22;2753;49.196;8.286;2023-06-14T00:04:23;20.60;53.70
5461;DHT22;2753;49.196;8.286;2023-06-14T00:06:50;20.60;53.90
5461;DHT22;2753;49.196;8.286;2023-06-14T00:09:16;20.60;53.90
5461;DHT22;2753;49.196;8.286;2023-06-14T00:11:45;20.60;54.10
5461;DHT22;2753;49.196;8.286;2023-06-14T00:14:10;20.50;54.20
5461;DHT22;2753;49.196;8.286;2023-06-14T00:16:36;20.50;54.40
5461;DHT22;2753;49.196;8.286;2023-06-14T00:19:02;20.50;54.50
5461;DHT22;2753;49.196;8.286;2023-06-14T00:21:31;20.40;54.50
5461;DHT22;2753;49.196;8.286;2023-06-14T00:23:58;20.30;54.80
5461;DHT22;2753;49.196;8.286;2023-06-14T00:26:24;20.30;55.20
5461;DHT22;2753;49.196;8.286;2023-06-14T00:28:51;20.20;55.20
5461;DHT22;2753;49.196;8.286;2023-06-14T00:31:17;20.20;55.60
5461;DHT22;2753;49.196;8.286;2023-06-14T00:33:43;20.20;55.40
5461;DHT22;2753;49.196;8.286;2023-06-14T00:36:09;20.20;55.60
5461;DHT22;2753;49.196;8.286;2023-06-14T00:38:34;20.10;55.90
5461;DHT22;2753;49.196;8.286;2023-06-14T00:41:00;20.00;56.20
5461;DHT22;2753;49.196;8.286;2023-06-14T00:43:26;20.00;56.30
5461;DHT22;2753;49.196;8.286;2023-06-14T00:45:51;19.90;56.30
5461;DHT22;2753;49.196;8.286;2023-06-14T00:48:18;19.90;56.40
5461;DHT22;2753;49.196;8.286;2023-06-14T00:50:44;19.90;56.50
5461;DHT22;2753;49.196;8.286;2023-06-14T00:53:15;19.90;56.40
5461;DHT22;2753;49.196;8.286;2023-06-14T00:55:41;19.80;56.30
5461;DHT22;2753;49.196;8.286;2023-06-14T00:58:07;19.90;56.20
5461;DHT22;2753;49.196;8.286;2023-06-14T01:00:33;19.80;56.40
5461;DHT22;2753;49.196;8.286;2023-06-14T01:02:59;19.70;56.50
5461;DHT22;2753;49.196;8.286;2023-06-14T01:05:25;19.80;57.00
5461;DHT22;2753;49.196;8.286;2023-06-14T01:08:37;19.80;56.90
5461;DHT22;2753;49.196;8.286;2023-06-14T01:11:13;19.60;57.10
5461;DHT22;2753;49.196;8.286;2023-06-14T01:13:45;19.60;57.30
5461;DHT22;2753;49.196;8.286;2023-06-14T01:16:12;19.50;57.40
5461;DHT22;2753;49.196;8.286;2023-06-14T01:18:38;19.50;57.30
5461;DHT22;2753;49.196;8.286;2023-06-14T01:21:04;19.50;57.40
5461;DHT22;2753;49.196;8.286;2023-06-14T01:23:31;19.40;57.50
5461;DHT22;2753;49.196;8.286;2023-06-14T01:26:01;19.40;57.40
5461;DHT22;2753;49.196;8.286;2023-06-14T01:28:29;19.40;57.50
5461;DHT22;2753;49.196;8.286;2023-06-14T01:31:00;19.50;57.50
5461;DHT22;2753;49.196;8.286;2023-06-14T01:33:31;19.50;57.30
5461;DHT22;2753;49.196;8.286;2023-06-14T01:35:58;19.50;57.40
5461;DHT22;2753;49.196;8.286;2023-06-14T01:38:25;19.40;57.50
5461;DHT22;2753;49.196;8.286;2023-06-14T01:40:54;19.30;57.80
5461;DHT22;2753;49.196;8.286;2023-06-14T01:43:21;19.30;57.80
5461;DHT22;2753;49.196;8.286;2023-06-14T01:45:48;19.30;57.70
5461;DHT22;2753;49.196;8.286;2023-06-14T01:48:16;19.40;57.70
5461;DHT22;2753;49.196;8.286;2023-06-14T01:50:42;19.30;57.80
5461;DHT22;2753;49.196;8.286;2023-06-14T01:53:09;19.20;58.00
5461;DHT22;2753;49.196;8.286;2023-06-14T01:55:35;19.20;58.00
5461;DHT22;2753;49.196;8.286;2023-06-14T01:58:05;19.20;58.30
5461;DHT22;2753;49.196;8.286;2023-06-14T02:03:07;19.00;58.60
5461;DHT22;2753;49.196;8.286;2023-06-14T02:05:32;19.00;58.80
5461;DHT22;2753;49.196;8.286;2023-06-14T02:08:00;19.00;59.40
5461;DHT22;2753;49.196;8.286;2023-06-14T02:10:26;19.10;58.30
5461;DHT22;2753;49.196;8.286;2023-06-14T02:12:51;19.10;58.40
5461;DHT22;2753;49.196;8.286;2023-06-14T02:15:17;19.00;58.60
5461;DHT22;2753;49.196;8.286;2023-06-14T02:17:47;19.00;58.50
5461;DHT22;2753;49.196;8.286;2023-06-14T02:20:14;18.90;58.80
5461;DHT22;2753;49.196;8.286;2023-06-14T02:22:40;18.90;58.50
5461;DHT22;2753;49.196;8.286;2023-06-14T02:25:07;18.90;58.50
5461;DHT22;2753;49.196;8.286;2023-06-14T02:27:33;19.00;58.50
5461;DHT22;2753;49.196;8.286;2023-06-14T02:30:00;18.90;58.60
5461;DHT22;2753;49.196;8.286;2023-06-14T02:32:26;18.90;58.40
5461;DHT22;2753;49.196;8.286;2023-06-14T02:34:54;19.00;58.40
5461;DHT22;2753;49.196;8.286;2023-06-14T02:37:20;19.00;58.30
5461;DHT22;2753;49.196;8.286;2023-06-14T02:39:46;19.00;58.50
5461;DHT22;2753;49.196;8.286;2023-06-14T02:42:11;19.00;58.40
5461;DHT22;2753;49.196;8.286;2023-06-14T02:44:37;18.80;58.70
5461;DHT22;2753;49.196;8.286;2023-06-14T02:47:04;18.90;58.60
5461;DHT22;2753;49.196;8.286;2023-06-14T02:49:30;18.90;58.60
5461;DHT22;2753;49.196;8.286;2023-06-14T02:51:56;18.80;58.70
5461;DHT22;2753;49.196;8.286;2023-06-14T02:54:22;18.80;58.70
5461;DHT22;2753;49.196;8.286;2023-06-14T02:56:48;18.80;58.60
5461;DHT22;2753;49.196;8.286;2023-06-14T02:59:13;18.80;58.40
5461;DHT22;2753;49.196;8.286;2023-06-14T03:01:40;18.70;59.00
5461;DHT22;2753;49.196;8.286;2023-06-14T03:04:09;18.70;59.40
5461;DHT22;2753;49.196;8.286;2023-06-14T03:06:35;18.60;59.30
5461;DHT22;2753;49.196;8.286;2023-06-14T03:09:02;18.60;59.40
5461;DHT22;2753;49.196;8.286;2023-06-14T03:11:32;18.60;59.30
5461;DHT22;2753;49.196;8.286;2023-06-14T03:13:57;18.60;59.60
5461;DHT22;2753;49.196;8.286;2023-06-14T03:16:23;18.60;59.60
5461;DHT22;2753;49.196;8.286;2023-06-14T03:18:52;18.50;59.80
5461;DHT22;2753;49.196;8.286;2023-06-14T03:21:19;18.50;60.00
5461;DHT22;2753;49.196;8.286;2023-06-14T03:23:46;18.50;59.90
5461;DHT22;2753;49.196;8.286;2023-06-14T03:26:13;18.40;60.50
5461;DHT22;2753;49.196;8.286;2023-06-14T03:28:46;18.40;60.40
5461;DHT22;2753;49.196;8.286;2023-06-14T03:31:13;18.40;60.10
5461;DHT22;2753;49.196;8.286;2023-06-14T03:33:39;18.40;61.20
5461;DHT22;2753;49.196;8.286;2023-06-14T03:36:05;18.30;60.90
5461;DHT22;2753;49.196;8.286;2023-06-14T03:38:32;18.30;61.00
5461;DHT22;2753;49.196;8.286;2023-06-14T03:40:58;18.30;60.50
5461;DHT22;2753;49.196;8.286;2023-06-14T03:43:23;18.20;60.60
5461;DHT22;2753;49.196;8.286;2023-06-14T03:45:49;18.30;60.30
5461;DHT22;2753;49.196;8.286;2023-06-14T03:48:15;18.30;60.40
5461;DHT22;2753;49.196;8.286;2023-06-14T03:50:41;18.30;60.30
5461;DHT22;2753;49.196;8.286;2023-06-14T03:53:08;18.20;60.50
5461;DHT22;2753;49.196;8.286;2023-06-14T03:55:34;18.20;60.20
5461;DHT22;2753;49.196;8.286;2023-06-14T03:58:00;18.20;60.50
5461;DHT22;2753;49.196;8.286;2023-06-14T04:00:26;18.20;61.00
5461;DHT22;2753;49.196;8.286;2023-06-14T04:02:52;18.10;61.00
5461;DHT22;2753;49.196;8.286;2023-06-14T04:05:19;18.10;60.90
5461;DHT22;2753;49.196;8.286;2023-06-14T04:07:47;18.10;60.70
5461;DHT22;2753;49.196;8.286;2023-06-14T04:10:15;18.10;60.70
5461;DHT22;2753;49.196;8.286;2023-06-14T04:12:41;18.10;61.00
5461;DHT22;2753;49.196;8.286;2023-06-14T04:15:08;18.10;61.00
5461;DHT22;2753;49.196;8.286;2023-06-14T04:17:37;18.10;61.30
5461;DHT22;2753;49.196;8.286;2023-06-14T04:20:04;18.00;61.40
5461;DHT22;2753;49.196;8.286;2023-06-14T04:22:31;18.10;61.30
5461;DHT22;2753;49.196;8.286;2023-06-14T04:24:57;18.00;61.50
5461;DHT22;2753;49.196;8.286;2023-06-14T04:27:25;18.10;61.30
5461;DHT22;2753;49.196;8.286;2023-06-14T04:29:55;18.10;61.70
5461;DHT22;2753;49.196;8.286;2023-06-14T04:32:25;18.20;61.30
5461;DHT22;2753;49.196;8.286;2023-06-14T04:34:55;18.20;61.30
5461;DHT22;2753;49.196;8.286;2023-06-14T04:37:21;18.20;61.40
5461;DHT22;2753;49.196;8.286;2023-06-14T04:39:48;18.20;61.70
5461;DHT22;2753;49.196;8.286;2023-06-14T04:42:14;18.20;61.40
5461;DHT22;2753;49.196;8.286;2023-06-14T04:44:42;18.20;61.40
5461;DHT22;2753;49.196;8.286;2023-06-14T04:47:09;18.20;61.70
5461;DHT22;2753;49.196;8.286;2023-06-14T04:49:35;18.20;61.50
5461;DHT22;2753;49.196;8.286;2023-06-14T04:52:01;18.30;61.40
5461;DHT22;2753;49.196;8.286;2023-06-14T04:54:30;18.30;61.60
5461;DHT22;2753;49.196;8.286;2023-06-14T04:56:57;18.30;61.80
5461;DHT22;2753;49.196;8.286;2023-06-14T04:59:23;18.30;62.00
5461;DHT22;2753;49.196;8.286;2023-06-14T05:01:49;18.30;62.10
5461;DHT22;2753;49.196;8.286;2023-06-14T05:04:16;18.30;61.70
5461;DHT22;2753;49.196;8.286;2023-06-14T05:06:42;18.40;61.80
5461;DHT22;2753;49.196;8.286;2023-06-14T05:09:14;19.00;62.50
5461;DHT22;2753;49.196;8.286;2023-06-14T05:11:40;18.40;62.20
5461;DHT22;2753;49.196;8.286;2023-06-14T05:14:10;18.50;62.20
5461;DHT22;2753;49.196;8.286;2023-06-14T05:16:36;18.50;62.20
5461;DHT22;2753;49.196;8.286;2023-06-14T05:19:03;18.50;62.00
5461;DHT22;2753;49.196;8.286;2023-06-14T05:21:30;18.50;62.10
5461;DHT22;2753;49.196;8.286;2023-06-14T05:23:56;18.50;62.00
5461;DHT22;2753;49.196;8.286;2023-06-14T05:26:21;18.50;62.10
5461;DHT22;2753;49.196;8.286;2023-06-14T05:28:49;18.60;62.30
5461;DHT22;2753;49.196;8.286;2023-06-14T05:31:15;18.60;62.40
5461;DHT22;2753;49.196;8.286;2023-06-14T05:33:41;18.60;62.20
5461;DHT22;2753;49.196;8.286;2023-06-14T05:36:07;18.60;62.50
5461;DHT22;2753;49.196;8.286;2023-06-14T05:38:32;18.60;62.50
5461;DHT22;2753;49.196;8.286;2023-06-14T05:40:58;18.70;62.60
5461;DHT22;2753;49.196;8.286;2023-06-14T05:43:24;18.70;62.70
5461;DHT22;2753;49.196;8.286;2023-06-14T05:45:50;18.80;62.90
5461;DHT22;2753;49.196;8.286;2023-06-14T05:48:16;18.80;62.90
5461;DHT22;2753;49.196;8.286;2023-06-14T05:50:41;18.80;62.90
5461;DHT22;2753;49.196;8.286;2023-06-14T05:53:07;18.80;62.80
5461;DHT22;2753;49.196;8.286;2023-06-14T05:55:33;18.90;63.00
5461;DHT22;2753;49.196;8.286;2023-06-14T05:57:58;18.90;63.80
5461;DHT22;2753;49.196;8.286;2023-06-14T06:00:52;18.90;62.80
5461;DHT22;2753;49.196;8.286;2023-06-14T06:03:18;18.90;62.90
5461;DHT22;2753;49.196;8.286;2023-06-14T06:05:44;18.90;63.00
5461;DHT22;2753;49.196;8.286;2023-06-14T06:08:10;19.00;63.10
5461;DHT22;2753;49.196;8.286;2023-06-14T06:10:36;19.00;62.80
5461;DHT22;2753;49.196;8.286;2023-06-14T06:13:01;19.00;63.00
5461;DHT22;2753;49.196;8.286;2023-06-14T06:15:27;19.10;63.00
5461;DHT22;2753;49.196;8.286;2023-06-14T06:17:53;19.10;62.50
5461;DHT22;2753;49.196;8.286;2023-06-14T06:20:19;19.20;63.30
5461;DHT22;2753;49.196;8.286;2023-06-14T06:22:44;19.20;62.90
5461;DHT22;2753;49.196;8.286;2023-06-14T06:25:10;19.30;62.50
5461;DHT22;2753;49.196;8.286;2023-06-14T06:27:36;19.40;62.80
5461;DHT22;2753;49.196;8.286;2023-06-14T06:30:03;19.40;62.60
5461;DHT22;2753;49.196;8.286;2023-06-14T06:32:29;19.40;62.70
5461;DHT22;2753;49.196;8.286;2023-06-14T06:34:55;19.50;63.10
5461;DHT22;2753;49.196;8.286;2023-06-14T06:37:21;19.50;62.70
5461;DHT22;2753;49.196;8.286;2023-06-14T06:39:46;19.50;62.80
5461;DHT22;2753;49.196;8.286;2023-06-14T06:42:13;19.60;62.60
5461;DHT22;2753;49.196;8.286;2023-06-14T06:44:38;19.60;62.90
5461;DHT22;2753;49.196;8.286;2023-06-14T06:47:04;19.70;62.50
5461;DHT22;2753;49.196;8.286;2023-06-14T06:49:30;19.80;62.60
5461;DHT22;2753;49.196;8.286;2023-06-14T06:52:00;19.90;62.30
5461;DHT22;2753;49.196;8.286;2023-06-14T06:54:27;20.10;63.20
5461;DHT22;2753;49.196;8.286;2023-06-14T06:56:53;20.40;62.00
5461;DHT22;2753;49.196;8.286;2023-06-14T06:59:19;20.60;61.80
5461;DHT22;2753;49.196;8.286;2023-06-14T07:01:44;20.90;60.70
5461;DHT22;2753;49.196;8.286;2023-06-14T07:04:10;21.10;60.20
5461;DHT22;2753;49.196;8.286;2023-06-14T07:06:36;21.30;59.80
5461;DHT22;2753;49.196;8.286;2023-06-14T07:09:02;21.40;59.50
5461;DHT22;2753;49.196;8.286;2023-06-14T07:11:30;21.50;59.30
5461;DHT22;2753;49.196;8.286;2023-06-14T07:13:55;21.50;59.40
5461;DHT22;2753;49.196;8.286;2023-06-14T07:16:21;21.60;59.30
5461;DHT22;2753;49.196;8.286;2023-06-14T07:18:47;21.70;59.50
5461;DHT22;2753;49.196;8.286;2023-06-14T07:21:12;21.80;59.10
5461;DHT22;2753;49.196;8.286;2023-06-14T07:23:38;22.00;59.20
5461;DHT22;2753;49.196;8.286;2023-06-14T07:26:04;22.20;58.90
5461;DHT22;2753;49.196;8.286;2023-06-14T07:28:30;22.50;58.70
5461;DHT22;2753;49.196;8.286;2023-06-14T07:30:56;22.60;58.10
5461;DHT22;2753;49.196;8.286;2023-06-14T07:33:21;22.80;58.40
5461;DHT22;2753;49.196;8.286;2023-06-14T07:35:47;22.90;58.00
5461;DHT22;2753;49.196;8.286;2023-06-14T07:38:14;23.10;58.00
5461;DHT22;2753;49.196;8.286;2023-06-14T07:40:40;23.20;57.70
5461;DHT22;2753;49.196;8.286;2023-06-14T07:43:05;23.40;57.70
5461;DHT22;2753;49.196;8.286;2023-06-14T07:45:31;23.60;56.60
5461;DHT22;2753;49.196;8.286;2023-06-14T07:47:57;23.70;56.90
5461;DHT22;2753;49.196;8.286;2023-06-14T07:50:23;23.90;56.40
5461;DHT22;2753;49.196;8.286;2023-06-14T07:52:48;24.00;56.00
5461;DHT22;2753;49.196;8.286;2023-06-14T07:55:14;24.10;56.10
5461;DHT22;2753;49.196;8.286;2023-06-14T07:57:40;24.30;55.60
5461;DHT22;2753;49.196;8.286;2023-06-14T08:00:06;24.20;54.50
5461;DHT22;2753;49.196;8.286;2023-06-14T08:02:32;24.40;55.20
5461;DHT22;2753;49.196;8.286;2023-06-14T08:04:58;24.60;54.10
5461;DHT22;2753;49.196;8.286;2023-06-14T08:07:24;24.80;54.70
5461;DHT22;2753;49.196;8.286;2023-06-14T08:09:50;25.00;54.50
5461;DHT22;2753;49.196;8.286;2023-06-14T08:12:15;25.20;53.50
5461;DHT22;2753;49.196;8.286;2023-06-14T08:14:42;25.20;53.90
5461;DHT22;2753;49.196;8.286;2023-06-14T08:17:08;25.40;53.40
5461;DHT22;2753;49.196;8.286;2023-06-14T08:19:33;25.50;52.70
5461;DHT22;2753;49.196;8.286;2023-06-14T08:21:59;25.50;53.60
5461;DHT22;2753;49.196;8.286;2023-06-14T08:24:25;25.60;53.40
5461;DHT22;2753;49.196;8.286;2023-06-14T08:26:54;25.70;53.40
5461;DHT22;2753;49.196;8.286;2023-06-14T08:29:19;26.00;52.50
5461;DHT22;2753;49.196;8.286;2023-06-14T08:31:45;26.30;51.10
5461;DHT22;2753;49.196;8.286;2023-06-14T08:34:11;26.40;51.10
5461;DHT22;2753;49.196;8.286;2023-06-14T08:36:37;26.40;51.40
5461;DHT22;2753;49.196;8.286;2023-06-14T08:39:03;26.50;51.40
5461;DHT22;2753;49.196;8.286;2023-06-14T08:41:29;26.40;51.50
5461;DHT22;2753;49.196;8.286;2023-06-14T08:43:56;26.30;51.80
5461;DHT22;2753;49.196;8.286;2023-06-14T08:46:25;26.70;50.50
5461;DHT22;2753;49.196;8.286;2023-06-14T08:48:54;26.90;48.80
5461;DHT22;2753;49.196;8.286;2023-06-14T08:51:22;27.00;49.20
5461;DHT22;2753;49.196;8.286;2023-06-14T08:53:53;26.90;49.70
5461;DHT22;2753;49.196;8.286;2023-06-14T08:56:26;27.00;49.50
5461;DHT22;2753;49.196;8.286;2023-06-14T08:58:53;27.10;49.30
5461;DHT22;2753;49.196;8.286;2023-06-14T09:01:20;27.40;48.50
5461;DHT22;2753;49.196;8.286;2023-06-14T09:03:48;27.50;48.60
5461;DHT22;2753;49.196;8.286;2023-06-14T09:06:14;27.40;47.90
5461;DHT22;2753;49.196;8.286;2023-06-14T09:08:46;27.10;48.90
5461;DHT22;2753;49.196;8.286;2023-06-14T09:11:14;27.40;48.70
5461;DHT22;2753;49.196;8.286;2023-06-14T09:13:41;27.10;48.50
5461;DHT22;2753;49.196;8.286;2023-06-14T09:16:07;27.10;49.00
5461;DHT22;2753;49.196;8.286;2023-06-14T09:18:35;27.20;47.60
5461;DHT22;2753;49.196;8.286;2023-06-14T09:21:01;27.50;47.80
5461;DHT22;2753;49.196;8.286;2023-06-14T09:23:27;27.40;48.00
5461;DHT22;2753;49.196;8.286;2023-06-14T09:25:52;27.40;47.90
5461;DHT22;2753;49.196;8.286;2023-06-14T09:28:19;27.40;47.70
5461;DHT22;2753;49.196;8.286;2023-06-14T09:30:48;27.30;47.60
5461;DHT22;2753;49.196;8.286;2023-06-14T09:33:17;27.20;48.10
5461;DHT22;2753;49.196;8.286;2023-06-14T09:35:45;27.10;48.30
5461;DHT22;2753;49.196;8.286;2023-06-14T09:38:14;26.80;49.10
5461;DHT22;2753;49.196;8.286;2023-06-14T09:40:40;26.90;48.60
5461;DHT22;2753;49.196;8.286;2023-06-14T09:43:06;26.90;48.90
5461;DHT22;2753;49.196;8.286;2023-06-14T09:45:35;26.80;48.30
5461;DHT22;2753;49.196;8.286;2023-06-14T09:48:01;26.70;47.80
5461;DHT22;2753;49.196;8.286;2023-06-14T09:50:27;26.80;48.40
5461;DHT22;2753;49.196;8.286;2023-06-14T09:52:56;26.70;48.10
5461;DHT22;2753;49.196;8.286;2023-06-14T09:55:24;26.60;48.10
5461;DHT22;2753;49.196;8.286;2023-06-14T09:57:53;26.60;48.50
5461;DHT22;2753;49.196;8.286;2023-06-14T10:00:20;26.40;48.10
5461;DHT22;2753;49.196;8.286;2023-06-14T10:02:51;26.50;48.00
5461;DHT22;2753;49.196;8.286;2023-06-14T10:05:20;26.50;48.30
5461;DHT22;2753;49.196;8.286;2023-06-14T10:10:13;26.30;48.70
5461;DHT22;2753;49.196;8.286;2023-06-14T10:12:39;26.40;48.00
5461;DHT22;2753;49.196;8.286;2023-06-14T10:15:07;26.30;48.30
5461;DHT22;2753;49.196;8.286;2023-06-14T10:17:56;26.50;48.10
5461;DHT22;2753;49.196;8.286;2023-06-14T10:23:22;26.40;48.20
5461;DHT22;2753;49.196;8.286;2023-06-14T10:25:56;26.40;48.20
5461;DHT22;2753;49.196;8.286;2023-06-14T10:28:22;26.40;48.10
5461;DHT22;2753;49.196;8.286;2023-06-14T10:33:35;26.40;47.70
5461;DHT22;2753;49.196;8.286;2023-06-14T10:36:31;26.40;47.70
5461;DHT22;2753;49.196;8.286;2023-06-14T10:39:06;26.40;46.80
5461;DHT22;2753;49.196;8.286;2023-06-14T10:41:40;26.30;45.80
5461;DHT22;2753;49.196;8.286;2023-06-14T10:46:55;26.30;46.00
5461;DHT22;2753;49.196;8.286;2023-06-14T10:49:41;26.20;46.00
5461;DHT22;2753;49.196;8.286;2023-06-14T10:52:15;26.30;45.90
5461;DHT22;2753;49.196;8.286;2023-06-14T10:55:06;26.30;45.70
5461;DHT22;2753;49.196;8.286;2023-06-14T10:57:35;26.30;45.20
5461;DHT22;2753;49.196;8.286;2023-06-14T11:00:02;26.30;45.30
5461;DHT22;2753;49.196;8.286;2023-06-14T11:05:08;26.10;45.90
5461;DHT22;2753;49.196;8.286;2023-06-14T11:10:41;26.10;44.60
5461;DHT22;2753;49.196;8.286;2023-06-14T11:13:08;26.00;44.40
5461;DHT22;2753;49.196;8.286;2023-06-14T11:15:36;26.00;45.00
5461;DHT22;2753;49.196;8.286;2023-06-14T11:18:03;26.10;45.60
5461;DHT22;2753;49.196;8.286;2023-06-14T11:20:31;26.10;45.10
5461;DHT22;2753;49.196;8.286;2023-06-14T11:22:57;26.00;44.40
5461;DHT22;2753;49.196;8.286;2023-06-14T11:25:24;26.00;44.40
5461;DHT22;2753;49.196;8.286;2023-06-14T11:27:50;26.00;44.60
5461;DHT22;2753;49.196;8.286;2023-06-14T11:30:16;25.70;44.80
5461;DHT22;2753;49.196;8.286;2023-06-14T11:32:45;25.80;45.10
5461;DHT22;2753;49.196;8.286;2023-06-14T11:35:11;25.80;45.40
5461;DHT22;2753;49.196;8.286;2023-06-14T11:37:37;25.80;45.60
5461;DHT22;2753;49.196;8.286;2023-06-14T11:40:06;25.80;45.80
5461;DHT22;2753;49.196;8.286;2023-06-14T11:42:35;25.80;45.00
5461;DHT22;2753;49.196;8.286;2023-06-14T11:45:02;25.90;45.80
5461;DHT22;2753;49.196;8.286;2023-06-14T11:47:35;26.00;45.90
5461;DHT22;2753;49.196;8.286;2023-06-14T11:50:02;25.80;45.70
5461;DHT22;2753;49.196;8.286;2023-06-14T11:52:28;25.90;46.00
5461;DHT22;2753;49.196;8.286;2023-06-14T11:54:56;25.90;45.90
5461;DHT22;2753;49.196;8.286;2023-06-14T11:57:24;26.00;46.20
5461;DHT22;2753;49.196;8.286;2023-06-14T11:59:50;26.00;44.80
5461;DHT22;2753;49.196;8.286;2023-06-14T12:02:16;25.90;45.20
5461;DHT22;2753;49.196;8.286;2023-06-14T12:04:43;26.00;45.20
5461;DHT22;2753;49.196;8.286;2023-06-14T12:07:13;26.00;45.30
5461;DHT22;2753;49.196;8.286;2023-06-14T12:12:24;26.00;45.30
5461;DHT22;2753;49.196;8.286;2023-06-14T12:14:55;26.00;45.80
5461;DHT22;2753;49.196;8.286;2023-06-14T12:17:22;26.00;45.50
5461;DHT22;2753;49.196;8.286;2023-06-14T12:19:49;26.10;46.20
5461;DHT22;2753;49.196;8.286;2023-06-14T12:22:16;26.10;45.60
5461;DHT22;2753;49.196;8.286;2023-06-14T12:24:45;26.00;45.70
5461;DHT22;2753;49.196;8.286;2023-06-14T12:27:12;26.10;45.40
5461;DHT22;2753;49.196;8.286;2023-06-14T12:29:44;26.10;45.10
5461;DHT22;2753;49.196;8.286;2023-06-14T12:32:10;26.10;44.80
5461;DHT22;2753;49.196;8.286;2023-06-14T12:34:36;26.10;45.50
5461;DHT22;2753;49.196;8.286;2023-06-14T12:37:03;26.10;45.30
5461;DHT22;2753;49.196;8.286;2023-06-14T12:39:30;26.00;45.30
5461;DHT22;2753;49.196;8.286;2023-06-14T12:41:57;26.10;44.80
5461;DHT22;2753;49.196;8.286;2023-06-14T12:44:23;26.00;45.30
5461;DHT22;2753;49.196;8.286;2023-06-14T12:46:49;26.00;45.90
5461;DHT22;2753;49.196;8.286;2023-06-14T12:49:17;26.00;45.10
5461;DHT22;2753;49.196;8.286;2023-06-14T12:51:43;26.00;45.20
5461;DHT22;2753;49.196;8.286;2023-06-14T12:54:08;26.10;45.60
5461;DHT22;2753;49.196;8.286;2023-06-14T12:56:34;26.10;45.40
5461;DHT22;2753;49.196;8.286;2023-06-14T12:59:00;26.10;45.20
5461;DHT22;2753;49.196;8.286;2023-06-14T13:01:26;26.10;45.40
5461;DHT22;2753;49.196;8.286;2023-06-14T13:03:52;26.10;45.60
5461;DHT22;2753;49.196;8.286;2023-06-14T13:06:22;26.10;45.10
5461;DHT22;2753;49.196;8.286;2023-06-14T13:08:48;26.10;44.70
5461;DHT22;2753;49.196;8.286;2023-06-14T13:11:14;26.00;44.90
5461;DHT22;2753;49.196;8.286;2023-06-14T13:13:40;25.90;44.80
5461;DHT22;2753;49.196;8.286;2023-06-14T13:16:06;25.90;44.70
5461;DHT22;2753;49.196;8.286;2023-06-14T13:18:33;25.90;45.40
5461;DHT22;2753;49.196;8.286;2023-06-14T13:20:58;26.00;46.00
5461;DHT22;2753;49.196;8.286;2023-06-14T13:23:24;26.10;45.60
5461;DHT22;2753;49.196;8.286;2023-06-14T13:25:51;26.20;45.50
5461;DHT22;2753;49.196;8.286;2023-06-14T13:28:17;26.20;45.40
5461;DHT22;2753;49.196;8.286;2023-06-14T13:30:43;26.00;45.30
5461;DHT22;2753;49.196;8.286;2023-06-14T13:33:09;26.00;45.80
5461;DHT22;2753;49.196;8.286;2023-06-14T13:35:34;26.00;45.90
5461;DHT22;2753;49.196;8.286;2023-06-14T13:38:00;26.00;45.60
5461;DHT22;2753;49.196;8.286;2023-06-14T13:40:26;26.00;45.80
5461;DHT22;2753;49.196;8.286;2023-06-14T13:42:52;26.00;45.90
5461;DHT22;2753;49.196;8.286;2023-06-14T13:45:18;25.90;45.90
5461;DHT22;2753;49.196;8.286;2023-06-14T13:47:43;25.80;45.80
5461;DHT22;2753;49.196;8.286;2023-06-14T13:50:10;25.80;45.50
5461;DHT22;2753;49.196;8.286;2023-06-14T13:52:35;25.80;45.90
5461;DHT22;2753;49.196;8.286;2023-06-14T13:55:01;25.80;45.70
5461;DHT22;2753;49.196;8.286;2023-06-14T13:57:27;25.90;46.00
5461;DHT22;2753;49.196;8.286;2023-06-14T13:59:53;26.00;45.70
5461;DHT22;2753;49.196;8.286;2023-06-14T14:02:24;26.00;45.90
5461;DHT22;2753;49.196;8.286;2023-06-14T14:04:54;26.00;46.00
5461;DHT22;2753;49.196;8.286;2023-06-14T14:07:20;25.90;46.00
5461;DHT22;2753;49.196;8.286;2023-06-14T14:09:46;25.90;46.40
5461;DHT22;2753;49.196;8.286;2023-06-14T14:12:13;25.80;47.00
5461;DHT22;2753;49.196;8.286;2023-06-14T14:14:39;25.70;46.40
5461;DHT22;2753;49.196;8.286;2023-06-14T14:17:06;25.60;46.60
5461;DHT22;2753;49.196;8.286;2023-06-14T14:19:32;25.60;46.60
5461;DHT22;2753;49.196;8.286;2023-06-14T14:21:58;25.50;46.20
5461;DHT22;2753;49.196;8.286;2023-06-14T14:24:23;25.60;46.30
5461;DHT22;2753;49.196;8.286;2023-06-14T14:26:49;25.70;46.90
5461;DHT22;2753;49.196;8.286;2023-06-14T14:29:16;25.70;46.90
5461;DHT22;2753;49.196;8.286;2023-06-14T14:31:42;25.70;46.60
5461;DHT22;2753;49.196;8.286;2023-06-14T14:34:08;25.60;46.30
5461;DHT22;2753;49.196;8.286;2023-06-14T14:36:33;25.60;46.60
5461;DHT22;2753;49.196;8.286;2023-06-14T14:39:05;25.60;47.00
5461;DHT22;2753;49.196;8.286;2023-06-14T14:41:32;25.60;46.80
5461;DHT22;2753;49.196;8.286;2023-06-14T14:43:58;25.60;46.80
5461;DHT22;2753;49.196;8.286;2023-06-14T14:46:26;25.70;46.90
5461;DHT22;2753;49.196;8.286;2023-06-14T14:48:52;25.70;47.10
5461;DHT22;2753;49.196;8.286;2023-06-14T14:51:18;25.70;46.70
5461;DHT22;2753;49.196;8.286;2023-06-14T14:53:44;25.70;46.60
5461;DHT22;2753;49.196;8.286;2023-06-14T14:56:09;25.60;46.20
5461;DHT22;2753;49.196;8.286;2023-06-14T14:58:37;25.60;47.00
5461;DHT22;2753;49.196;8.286;2023-06-14T15:01:03;25.60;46.60
5461;DHT22;2753;49.196;8.286;2023-06-14T15:03:31;25.50;46.40
5461;DHT22;2753;49.196;8.286;2023-06-14T15:05:57;25.50;46.70
5461;DHT22;2753;49.196;8.286;2023-06-14T15:08:23;25.50;46.80
5461;DHT22;2753;49.196;8.286;2023-06-14T15:10:48;25.50;46.60
5461;DHT22;2753;49.196;8.286;2023-06-14T15:13:14;25.60;46.70
5461;DHT22;2753;49.196;8.286;2023-06-14T15:15:40;25.60;46.60
5461;DHT22;2753;49.196;8.286;2023-06-14T15:18:05;25.50;45.60
5461;DHT22;2753;49.196;8.286;2023-06-14T15:20:31;25.60;46.00
5461;DHT22;2753;49.196;8.286;2023-06-14T15:22:57;25.60;46.30
5461;DHT22;2753;49.196;8.286;2023-06-14T15:25:29;25.60;46.70
5461;DHT22;2753;49.196;8.286;2023-06-14T15:27:55;25.70;46.90
5461;DHT22;2753;49.196;8.286;2023-06-14T15:30:21;25.60;47.20
5461;DHT22;2753;49.196;8.286;2023-06-14T15:32:47;25.60;47.50
5461;DHT22;2753;49.196;8.286;2023-06-14T15:35:14;25.50;47.60
5461;DHT22;2753;49.196;8.286;2023-06-14T15:37:40;25.50;47.70
5461;DHT22;2753;49.196;8.286;2023-06-14T15:40:06;25.40;47.50
5461;DHT22;2753;49.196;8.286;2023-06-14T15:42:32;25.40;47.80
5461;DHT22;2753;49.196;8.286;2023-06-14T15:44:57;25.40;47.90
5461;DHT22;2753;49.196;8.286;2023-06-14T15:47:23;25.40;48.00
5461;DHT22;2753;49.196;8.286;2023-06-14T15:49:49;25.50;48.70
5461;DHT22;2753;49.196;8.286;2023-06-14T15:52:15;25.40;47.10
5461;DHT22;2753;49.196;8.286;2023-06-14T15:54:41;25.40;46.20
5461;DHT22;2753;49.196;8.286;2023-06-14T15:57:06;25.40;46.30
5461;DHT22;2753;49.196;8.286;2023-06-14T15:59:32;25.40;46.40
5461;DHT22;2753;49.196;8.286;2023-06-14T16:01:58;25.40;46.20
5461;DHT22;2753;49.196;8.286;2023-06-14T16:04:24;25.40;46.40
5461;DHT22;2753;49.196;8.286;2023-06-14T16:06:49;25.40;46.60
5461;DHT22;2753;49.196;8.286;2023-06-14T16:09:15;25.40;46.80
5461;DHT22;2753;49.196;8.286;2023-06-14T16:11:41;25.40;46.90
5461;DHT22;2753;49.196;8.286;2023-06-14T16:14:07;25.40;46.80
5461;DHT22;2753;49.196;8.286;2023-06-14T16:16:32;25.30;46.90
5461;DHT22;2753;49.196;8.286;2023-06-14T16:18:58;25.40;47.10
5461;DHT22;2753;49.196;8.286;2023-06-14T16:21:24;25.40;46.70
5461;DHT22;2753;49.196;8.286;2023-06-14T16:23:50;25.40;46.50